sensor_id;sensor_type;location;lat;lon;timestamp;pressure;altitude;pressure_sealevel;temperature
19102;BMP280;9683;49.028;12.064;2023-09-18T00:01:02;96935.34;;;21.41
19102;BMP280;9683;49.028;12.064;2023-09-18T00:03:28;96920.19;;;21.40
19102;BMP280;9683;49.028;12.064;2023-09-18T00:05:54;96931.56;;;21.42
19102;BMP280;9683;49.028;12.064;2023-09-18T00:08:21;96924.53;;;21.41
19102;BMP280;9683;49.028;12.064;2023-09-18T00:10:49;96921.00;;;21.40
19102;BMP280;9683;49.028;12.064;2023-09-18T00:13:17;96914.19;;;21.43
19102;BMP280;9683;49.028;12.064;2023-09-18T00:15:44;96903.75;;;21.36
19102;BMP280;9683;49.028;12.064;2023-09-18T00:18:13;96908.19;;;21.46
19102;BMP280;9683;49.028;12.064;2023-09-18T00:20:39;96910.38;;;21.44
19102;BMP280;9683;49.028;12.064;2023-09-18T00:23:07;96908.47;;;21.44
19102;BMP280;9683;49.028;12.064;2023-09-18T00:25:33;96904.47;;;21.42
19102;BMP280;9683;49.028;12.064;2023-09-18T00:28:00;96904.47;;;21.42
19102;BMP280;9683;49.028;12.064;2023-09-18T00:30:28;96895.72;;;21.45
19102;BMP280;9683;49.028;12.064;2023-09-18T00:32:54;96892.50;;;21.43
19102;BMP280;9683;49.028;12.064;2023-09-18T00:35:21;96877.16;;;21.38
19102;BMP280;9683;49.028;12.064;2023-09-18T00:37:48;96883.91;;;21.41
19102;BMP280;9683;49.028;12.064;2023-09-18T00:40:14;96880.09;;;21.42
19102;BMP280;9683;49.028;12.064;2023-09-18T00:42:41;96877.38;;;21.42
19102;BMP280;9683;49.028;12.064;2023-09-18T00:45:08;96873.06;;;21.41
19102;BMP280;9683;49.028;12.064;2023-09-18T00:47:37;96880.09;;;21.42
19102;BMP280;9683;49.028;12.064;2023-09-18T00:50:05;96876.06;;;21.39
19102;BMP280;9683;49.028;12.064;2023-09-18T00:52:33;96868.25;;;21.38
19102;BMP280;9683;49.028;12.064;2023-09-18T00:55:00;96865.84;;;21.36
19102;BMP280;9683;49.028;12.064;2023-09-18T00:57:27;96859.63;;;21.36
19102;BMP280;9683;49.028;12.064;2023-09-18T00:59:54;96860.44;;;21.36
19102;BMP280;9683;49.028;12.064;2023-09-18T01:02:21;96858.53;;;21.37
19102;BMP280;9683;49.028;12.064;2023-09-18T01:04:49;96842.56;;;21.35
19102;BMP280;9683;49.028;12.064;2023-09-18T01:07:16;96856.09;;;21.35
19102;BMP280;9683;49.028;12.064;2023-09-18T01:09:43;96852.59;;;21.35
19102;BMP280;9683;49.028;12.064;2023-09-18T01:12:17;96853.19;;;21.32
19102;BMP280;9683;49.028;12.064;2023-09-18T01:14:52;96856.00;;;21.27
19102;BMP280;9683;49.028;12.064;2023-09-18T01:17:22;96862.41;;;21.31
19102;BMP280;9683;49.028;12.064;2023-09-18T01:19:50;96862.13;;;21.32
19102;BMP280;9683;49.028;12.064;2023-09-18T01:22:17;96845.88;;;21.32
19102;BMP280;9683;49.028;12.064;2023-09-18T01:24:46;96848.59;;;21.32
19102;BMP280;9683;49.028;12.064;2023-09-18T01:27:14;96842.47;;;21.27
19102;BMP280;9683;49.028;12.064;2023-09-18T01:29:42;96844.88;;;21.28
19102;BMP280;9683;49.028;12.064;2023-09-18T01:32:08;96845.16;;;21.27
19102;BMP280;9683;49.028;12.064;2023-09-18T01:34:37;96839.28;;;21.25
19102;BMP280;9683;49.028;12.064;2023-09-18T01:37:05;96828.72;;;21.23
19102;BMP280;9683;49.028;12.064;2023-09-18T01:39:34;96824.22;;;21.19
19102;BMP280;9683;49.028;12.064;2023-09-18T01:42:04;96819.63;;;21.19
19102;BMP280;9683;49.028;12.064;2023-09-18T01:44:31;96825.63;;;21.16
19102;BMP280;9683;49.028;12.064;2023-09-18T01:47:01;96818.09;;;21.13
19102;BMP280;9683;49.028;12.064;2023-09-18T01:49:29;96818.38;;;21.12
19102;BMP280;9683;49.028;12.064;2023-09-18T01:51:56;96814.06;;;21.11
19102;BMP280;9683;49.028;12.064;2023-09-18T01:54:22;96815.69;;;21.12
19102;BMP280;9683;49.028;12.064;2023-09-18T01:56:49;96799.63;;;21.01
19102;BMP280;9683;49.028;12.064;2023-09-18T01:59:17;96816.78;;;21.11
19102;BMP280;9683;49.028;12.064;2023-09-18T02:01:43;96807.38;;;21.08
19102;BMP280;9683;49.028;12.064;2023-09-18T02:04:10;96798.25;;;21.04
19102;BMP280;9683;49.028;12.064;2023-09-18T02:06:36;96787.00;;;20.97
19102;BMP280;9683;49.028;12.064;2023-09-18T02:09:03;96804.25;;;21.01
19102;BMP280;9683;49.028;12.064;2023-09-18T02:11:29;96800.72;;;21.00
19102;BMP280;9683;49.028;12.064;2023-09-18T02:13:56;96804.56;;;20.99
19102;BMP280;9683;49.028;12.064;2023-09-18T02:16:24;96809.16;;;20.99
19102;BMP280;9683;49.028;12.064;2023-09-18T02:18:54;96807.56;;;20.98
19102;BMP280;9683;49.028;12.064;2023-09-18T02:21:21;96811.69;;;20.95
19102;BMP280;9683;49.028;12.064;2023-09-18T02:23:49;96800.03;;;20.95
19102;BMP280;9683;49.028;12.064;2023-09-18T02:26:15;96797.63;;;20.93
19102;BMP280;9683;49.028;12.064;2023-09-18T02:28:42;96803.03;;;20.93
19102;BMP280;9683;49.028;12.064;2023-09-18T02:31:08;96796.81;;;20.93
19102;BMP280;9683;49.028;12.064;2023-09-18T02:33:36;96791.41;;;20.93
19102;BMP280;9683;49.028;12.064;2023-09-18T02:36:03;96778.09;;;20.83
19102;BMP280;9683;49.028;12.064;2023-09-18T02:38:29;96787.69;;;20.89
19102;BMP280;9683;49.028;12.064;2023-09-18T02:40:56;96786.09;;;20.88
19102;BMP280;9683;49.028;12.064;2023-09-18T02:43:23;96785.31;;;20.87
19102;BMP280;9683;49.028;12.064;2023-09-18T02:45:50;96790.41;;;20.89
19102;BMP280;9683;49.028;12.064;2023-09-18T02:48:16;96789.59;;;20.88
19102;BMP280;9683;49.028;12.064;2023-09-18T02:50:44;96785.09;;;20.84
19102;BMP280;9683;49.028;12.064;2023-09-18T02:53:17;96795.81;;;20.89
19102;BMP280;9683;49.028;12.064;2023-09-18T02:55:44;96798.03;;;20.87
19102;BMP280;9683;49.028;12.064;2023-09-18T02:58:10;96791.81;;;20.86
19102;BMP280;9683;49.028;12.064;2023-09-18T03:00:41;96789.13;;;20.86
19102;BMP280;9683;49.028;12.064;2023-09-18T03:03:08;96776.97;;;20.84
19102;BMP280;9683;49.028;12.064;2023-09-18T03:05:34;96776.16;;;20.83
19102;BMP280;9683;49.028;12.064;2023-09-18T03:08:02;96781.91;;;20.82
19102;BMP280;9683;49.028;12.064;2023-09-18T03:10:32;96781.09;;;20.81
19102;BMP280;9683;49.028;12.064;2023-09-18T03:12:59;96767.97;;;20.75
19102;BMP280;9683;49.028;12.064;2023-09-18T03:15:25;96785.78;;;20.76
19102;BMP280;9683;49.028;12.064;2023-09-18T03:17:52;96783.41;;;20.74
19102;BMP280;9683;49.028;12.064;2023-09-18T03:20:18;96771.25;;;20.72
19102;BMP280;9683;49.028;12.064;2023-09-18T03:22:45;96778.88;;;20.70
19102;BMP280;9683;49.028;12.064;2023-09-18T03:25:13;96780.28;;;20.67
19102;BMP280;9683;49.028;12.064;2023-09-18T03:27:39;96769.06;;;20.60
19102;BMP280;9683;49.028;12.064;2023-09-18T03:30:07;96762.63;;;20.56
19102;BMP280;9683;49.028;12.064;2023-09-18T03:32:33;96769.47;;;20.53
19102;BMP280;9683;49.028;12.064;2023-09-18T03:35:01;96772.44;;;20.52
19102;BMP280;9683;49.028;12.064;2023-09-18T03:37:28;96764.41;;;20.47
19102;BMP280;9683;49.028;12.064;2023-09-18T03:39:54;96727.34;;;20.34
19102;BMP280;9683;49.028;12.064;2023-09-18T03:42:22;96742.72;;;20.52
19102;BMP280;9683;49.028;12.064;2023-09-18T03:44:49;96742.19;;;20.50
19102;BMP280;9683;49.028;12.064;2023-09-18T03:47:15;96732.50;;;20.49
19102;BMP280;9683;49.028;12.064;2023-09-18T03:49:41;96724.66;;;20.47
19102;BMP280;9683;49.028;12.064;2023-09-18T03:52:08;96727.38;;;20.47
19102;BMP280;9683;49.028;12.064;2023-09-18T03:54:34;96722.84;;;20.43
19102;BMP280;9683;49.028;12.064;2023-09-18T03:57:01;96723.47;;;20.40
19102;BMP280;9683;49.028;12.064;2023-09-18T03:59:29;96731.88;;;20.38
19102;BMP280;9683;49.028;12.064;2023-09-18T04:01:55;96739.50;;;20.36
19102;BMP280;9683;49.028;12.064;2023-09-18T04:04:22;96730.84;;;20.34
19102;BMP280;9683;49.028;12.064;2023-09-18T04:06:48;96727.66;;;20.32
19102;BMP280;9683;49.028;12.064;2023-09-18T04:09:15;96717.13;;;20.31
19102;BMP280;9683;49.028;12.064;2023-09-18T04:11:43;96709.09;;;20.26
19102;BMP280;9683;49.028;12.064;2023-09-18T04:14:09;96701.50;;;20.28
19102;BMP280;9683;49.028;12.064;2023-09-18T04:16:37;96694.47;;;20.27
19102;BMP280;9683;49.028;12.064;2023-09-18T04:19:07;96696.19;;;20.23
19102;BMP280;9683;49.028;12.064;2023-09-18T04:21:35;96703.00;;;20.20
19102;BMP280;9683;49.028;12.064;2023-09-18T04:24:02;96712.69;;;20.21
19102;BMP280;9683;49.028;12.064;2023-09-18T04:26:28;96702.19;;;20.20
19102;BMP280;9683;49.028;12.064;2023-09-18T04:28:56;96697.59;;;20.20
19102;BMP280;9683;49.028;12.064;2023-09-18T04:31:22;96691.06;;;20.21
19102;BMP280;9683;49.028;12.064;2023-09-18T04:33:50;96681.06;;;20.22
19102;BMP280;9683;49.028;12.064;2023-09-18T04:36:16;96676.25;;;20.19
19102;BMP280;9683;49.028;12.064;2023-09-18T04:38:43;96672.94;;;20.22
19102;BMP280;9683;49.028;12.064;2023-09-18T04:41:09;96679.44;;;20.21
19102;BMP280;9683;49.028;12.064;2023-09-18T04:43:36;96681.56;;;20.24
19102;BMP280;9683;49.028;12.064;2023-09-18T04:46:03;96684.84;;;20.21
19102;BMP280;9683;49.028;12.064;2023-09-18T04:48:30;96683.75;;;20.22
19102;BMP280;9683;49.028;12.064;2023-09-18T04:50:58;96684.56;;;20.22
19102;BMP280;9683;49.028;12.064;2023-09-18T04:53:25;96689.88;;;20.27
19102;BMP280;9683;49.028;12.064;2023-09-18T04:55:53;96687.47;;;20.26
19102;BMP280;9683;49.028;12.064;2023-09-18T04:58:19;96686.38;;;20.27
19102;BMP280;9683;49.028;12.064;2023-09-18T05:00:47;96667.34;;;20.18
19102;BMP280;9683;49.028;12.064;2023-09-18T05:03:13;96668.84;;;20.24
19102;BMP280;9683;49.028;12.064;2023-09-18T05:05:40;96672.06;;;20.26
19102;BMP280;9683;49.028;12.064;2023-09-18T05:08:08;96660.84;;;20.19
19102;BMP280;9683;49.028;12.064;2023-09-18T05:10:34;96668.84;;;20.24
19102;BMP280;9683;49.028;12.064;2023-09-18T05:13:01;96673.47;;;20.24
19102;BMP280;9683;49.028;12.064;2023-09-18T05:15:28;96666.16;;;20.24
19102;BMP280;9683;49.028;12.064;2023-09-18T05:17:55;96666.94;;;20.25
19102;BMP280;9683;49.028;12.064;2023-09-18T05:20:24;96661.25;;;20.26
19102;BMP280;9683;49.028;12.064;2023-09-18T05:22:51;96673.34;;;20.29
19102;BMP280;9683;49.028;12.064;2023-09-18T05:25:20;96676.03;;;20.29
19102;BMP280;9683;49.028;12.064;2023-09-18T05:27:48;96682.81;;;20.31
19102;BMP280;9683;49.028;12.064;2023-09-18T05:30:24;96683.59;;;20.32
19102;BMP280;9683;49.028;12.064;2023-09-18T05:32:53;96689.50;;;20.34
19102;BMP280;9683;49.028;12.064;2023-09-18T05:35:19;96685.41;;;20.36
19102;BMP280;9683;49.028;12.064;2023-09-18T05:37:47;96678.59;;;20.39
19102;BMP280;9683;49.028;12.064;2023-09-18T05:40:13;96671.00;;;20.41
19102;BMP280;9683;49.028;12.064;2023-09-18T05:42:42;96652.16;;;20.36
19102;BMP280;9683;49.028;12.064;2023-09-18T05:45:09;96647.97;;;20.43
19102;BMP280;9683;49.028;12.064;2023-09-18T05:47:36;96634.53;;;20.38
19102;BMP280;9683;49.028;12.064;2023-09-18T05:50:04;96648.97;;;20.47
19102;BMP280;9683;49.028;12.064;2023-09-18T05:52:32;96641.56;;;20.39
19102;BMP280;9683;49.028;12.064;2023-09-18T05:54:58;96668.06;;;20.51
19102;BMP280;9683;49.028;12.064;2023-09-18T05:57:25;96668.88;;;20.51
19102;BMP280;9683;49.028;12.064;2023-09-18T05:59:53;96675.19;;;20.61
19102;BMP280;9683;49.028;12.064;2023-09-18T06:02:20;96679.50;;;20.62
19102;BMP280;9683;49.028;12.064;2023-09-18T06:04:47;96682.31;;;20.70
19102;BMP280;9683;49.028;12.064;2023-09-18T06:07:13;96673.69;;;20.68
19102;BMP280;9683;49.028;12.064;2023-09-18T06:09:40;96670.25;;;20.76
19102;BMP280;9683;49.028;12.064;2023-09-18T06:12:07;96673.47;;;20.78
19102;BMP280;9683;49.028;12.064;2023-09-18T06:14:34;96666.66;;;20.81
19102;BMP280;9683;49.028;12.064;2023-09-18T06:17:04;96674.66;;;20.86
19102;BMP280;9683;49.028;12.064;2023-09-18T06:19:31;96664.84;;;20.90
19102;BMP280;9683;49.028;12.064;2023-09-18T06:21:59;96661.22;;;20.94
19102;BMP280;9683;49.028;12.064;2023-09-18T06:24:25;96665.53;;;20.95
19102;BMP280;9683;49.028;12.064;2023-09-18T06:26:52;96658.28;;;21.04
19102;BMP280;9683;49.028;12.064;2023-09-18T06:29:18;96656.56;;;21.09
19102;BMP280;9683;49.028;12.064;2023-09-18T06:31:45;96657.16;;;21.19
19102;BMP280;9683;49.028;12.064;2023-09-18T06:34:13;96651.31;;;21.26
19102;BMP280;9683;49.028;12.064;2023-09-18T06:36:39;96652.31;;;21.30
19102;BMP280;9683;49.028;12.064;2023-09-18T06:39:06;96661.63;;;21.37
19102;BMP280;9683;49.028;12.064;2023-09-18T06:41:33;96659.09;;;21.41
19102;BMP280;9683;49.028;12.064;2023-09-18T06:44:00;96651.97;;;21.45
19102;BMP280;9683;49.028;12.064;2023-09-18T06:46:28;96659.66;;;21.52
19102;BMP280;9683;49.028;12.064;2023-09-18T06:48:55;96662.25;;;21.57
19102;BMP280;9683;49.028;12.064;2023-09-18T06:51:23;96664.03;;;21.61
19102;BMP280;9683;49.028;12.064;2023-09-18T06:53:50;96673.75;;;21.62
19102;BMP280;9683;49.028;12.064;2023-09-18T06:56:16;96686.38;;;21.67
19102;BMP280;9683;49.028;12.064;2023-09-18T06:58:43;96696.72;;;21.65
19102;BMP280;9683;49.028;12.064;2023-09-18T07:01:09;96699.44;;;21.65
19102;BMP280;9683;49.028;12.064;2023-09-18T07:03:36;96704.22;;;21.68
19102;BMP280;9683;49.028;12.064;2023-09-18T07:06:05;96712.16;;;21.64
19102;BMP280;9683;49.028;12.064;2023-09-18T07:08:33;96719.19;;;21.65
19102;BMP280;9683;49.028;12.064;2023-09-18T07:11:00;96719.19;;;21.65
19102;BMP280;9683;49.028;12.064;2023-09-18T07:13:25;96723.00;;;21.64
19102;BMP280;9683;49.028;12.064;2023-09-18T07:15:52;96725.25;;;21.62
19102;BMP280;9683;49.028;12.064;2023-09-18T07:18:18;96718.84;;;21.58
19102;BMP280;9683;49.028;12.064;2023-09-18T07:20:44;96711.00;;;21.57
19102;BMP280;9683;49.028;12.064;2023-09-18T07:23:11;96719.75;;;21.54
19102;BMP280;9683;49.028;12.064;2023-09-18T07:25:39;96721.75;;;21.48
19102;BMP280;9683;49.028;12.064;2023-09-18T07:28:08;96718.56;;;21.46
19102;BMP280;9683;49.028;12.064;2023-09-18T07:30:41;96708.53;;;21.46
19102;BMP280;9683;49.028;12.064;2023-09-18T07:33:09;96688.47;;;21.47
19102;BMP280;9683;49.028;12.064;2023-09-18T07:35:35;96692.03;;;21.57
19102;BMP280;9683;49.028;12.064;2023-09-18T07:38:02;96720.91;;;21.61
19102;BMP280;9683;49.028;12.064;2023-09-18T07:40:29;96712.97;;;21.65
19102;BMP280;9683;49.028;12.064;2023-09-18T07:42:56;96710.16;;;21.70
19102;BMP280;9683;49.028;12.064;2023-09-18T07:45:23;96719.25;;;21.74
19102;BMP280;9683;49.028;12.064;2023-09-18T07:47:50;96711.75;;;21.71
19102;BMP280;9683;49.028;12.064;2023-09-18T07:50:16;96711.19;;;21.82
19102;BMP280;9683;49.028;12.064;2023-09-18T07:52:43;96710.28;;;21.87
19102;BMP280;9683;49.028;12.064;2023-09-18T07:55:09;96704.22;;;21.90
19102;BMP280;9683;49.028;12.064;2023-09-18T07:57:36;96701.63;;;21.85
19102;BMP280;9683;49.028;12.064;2023-09-18T08:00:05;96696.81;;;21.96
19102;BMP280;9683;49.028;12.064;2023-09-18T08:02:37;96711.16;;;21.96
19102;BMP280;9683;49.028;12.064;2023-09-18T08:05:04;96714.06;;;22.00
19102;BMP280;9683;49.028;12.064;2023-09-18T08:07:31;96722.66;;;22.02
19102;BMP280;9683;49.028;12.064;2023-09-18T08:09:58;96731.78;;;22.06
19102;BMP280;9683;49.028;12.064;2023-09-18T08:12:24;96728.47;;;22.09
19102;BMP280;9683;49.028;12.064;2023-09-18T08:14:51;96739.66;;;22.16
19102;BMP280;9683;49.028;12.064;2023-09-18T08:17:18;96733.13;;;22.17
19102;BMP280;9683;49.028;12.064;2023-09-18T08:19:45;96740.81;;;22.23
19102;BMP280;9683;49.028;12.064;2023-09-18T08:22:11;96743.09;;;22.30
19102;BMP280;9683;49.028;12.064;2023-09-18T08:24:40;96731.31;;;22.34
19102;BMP280;9683;49.028;12.064;2023-09-18T08:27:07;96724.28;;;22.33
19102;BMP280;9683;49.028;12.064;2023-09-18T08:29:33;96731.03;;;22.45
19102;BMP280;9683;49.028;12.064;2023-09-18T08:32:00;96723.88;;;22.49
19102;BMP280;9683;49.028;12.064;2023-09-18T08:34:28;96714.31;;;22.51
19102;BMP280;9683;49.028;12.064;2023-09-18T08:36:54;96713.06;;;22.57
19102;BMP280;9683;49.028;12.064;2023-09-18T08:39:20;96714.84;;;22.62
19102;BMP280;9683;49.028;12.064;2023-09-18T08:41:50;96699.81;;;22.64
19102;BMP280;9683;49.028;12.064;2023-09-18T08:44:22;96702.94;;;22.71
19102;BMP280;9683;49.028;12.064;2023-09-18T08:46:51;96691.75;;;22.73
19102;BMP280;9683;49.028;12.064;2023-09-18T08:49:17;96694.66;;;22.76
19102;BMP280;9683;49.028;12.064;2023-09-18T08:51:46;96697.19;;;22.81
19102;BMP280;9683;49.028;12.064;2023-09-18T08:54:13;96702.31;;;22.83
19102;BMP280;9683;49.028;12.064;2023-09-18T08:56:41;96704.91;;;22.88
19102;BMP280;9683;49.028;12.064;2023-09-18T08:59:07;96698.97;;;22.86
19102;BMP280;9683;49.028;12.064;2023-09-18T09:01:34;96697.41;;;22.94
19102;BMP280;9683;49.028;12.064;2023-09-18T09:04:00;96684.31;;;22.96
19102;BMP280;9683;49.028;12.064;2023-09-18T09:06:27;96699.00;;;23.03
19102;BMP280;9683;49.028;12.064;2023-09-18T09:08:55;96678.09;;;23.04
19102;BMP280;9683;49.028;12.064;2023-09-18T09:11:21;96699.38;;;23.10
19102;BMP280;9683;49.028;12.064;2023-09-18T09:14:01;96704.28;;;23.08
19102;BMP280;9683;49.028;12.064;2023-09-18T09:16:34;96711.19;;;23.14
19102;BMP280;9683;49.028;12.064;2023-09-18T09:19:01;96718.38;;;23.19
19102;BMP280;9683;49.028;12.064;2023-09-18T09:21:38;96708.16;;;23.24
19102;BMP280;9683;49.028;12.064;2023-09-18T09:24:06;96695.22;;;23.21
19102;BMP280;9683;49.028;12.064;2023-09-18T09:26:33;96703.38;;;23.30
19102;BMP280;9683;49.028;12.064;2023-09-18T09:29:14;96692.50;;;23.39
19102;BMP280;9683;49.028;12.064;2023-09-18T09:31:43;96680.19;;;23.33
19102;BMP280;9683;49.028;12.064;2023-09-18T09:34:09;96678.91;;;23.39
19102;BMP280;9683;49.028;12.064;2023-09-18T09:36:36;96663.72;;;23.38
19102;BMP280;9683;49.028;12.064;2023-09-18T09:39:03;96678.16;;;23.55
19102;BMP280;9683;49.028;12.064;2023-09-18T09:41:32;96669.84;;;23.60
19102;BMP280;9683;49.028;12.064;2023-09-18T09:43:59;96679.41;;;23.66
19102;BMP280;9683;49.028;12.064;2023-09-18T09:46:25;96665.81;;;23.66
19102;BMP280;9683;49.028;12.064;2023-09-18T09:49:00;96663.72;;;23.81
19102;BMP280;9683;49.028;12.064;2023-09-18T09:51:27;96654.59;;;23.85
19102;BMP280;9683;49.028;12.064;2023-09-18T09:53:53;96652.03;;;23.89
19102;BMP280;9683;49.028;12.064;2023-09-18T09:56:20;96636.53;;;23.81
19102;BMP280;9683;49.028;12.064;2023-09-18T09:59:01;96667.53;;;23.97
19102;BMP280;9683;49.028;12.064;2023-09-18T10:01:30;96666.56;;;24.01
19102;BMP280;9683;49.028;12.064;2023-09-18T10:03:58;96662.06;;;24.05
19102;BMP280;9683;49.028;12.064;2023-09-18T10:06:27;96667.34;;;24.10
19102;BMP280;9683;49.028;12.064;2023-09-18T10:08:55;96662.84;;;24.14
19102;BMP280;9683;49.028;12.064;2023-09-18T10:11:23;96654.19;;;24.21
19102;BMP280;9683;49.028;12.064;2023-09-18T10:13:54;96654.84;;;24.27
19102;BMP280;9683;49.028;12.064;2023-09-18T10:16:23;96650.00;;;24.32
19102;BMP280;9683;49.028;12.064;2023-09-18T10:18:58;96654.00;;;24.35
19102;BMP280;9683;49.028;12.064;2023-09-18T10:21:41;96656.41;;;24.36
19102;BMP280;9683;49.028;12.064;2023-09-18T10:24:14;96668.19;;;24.49
19102;BMP280;9683;49.028;12.064;2023-09-18T10:26:50;96663.97;;;24.60
19102;BMP280;9683;49.028;12.064;2023-09-18T10:29:18;96657.53;;;24.64
19102;BMP280;9683;49.028;12.064;2023-09-18T10:31:48;96663.59;;;24.70
19102;BMP280;9683;49.028;12.064;2023-09-18T10:34:15;96670.13;;;24.78
19102;BMP280;9683;49.028;12.064;2023-09-18T10:36:43;96669.94;;;24.83
19102;BMP280;9683;49.028;12.064;2023-09-18T10:39:10;96674.72;;;24.94
19102;BMP280;9683;49.028;12.064;2023-09-18T10:41:38;96675.44;;;25.03
19102;BMP280;9683;49.028;12.064;2023-09-18T10:44:06;96676.19;;;25.13
19102;BMP280;9683;49.028;12.064;2023-09-18T10:46:32;96675.19;;;25.17
19102;BMP280;9683;49.028;12.064;2023-09-18T10:49:01;96671.25;;;25.27
19102;BMP280;9683;49.028;12.064;2023-09-18T10:51:29;96669.16;;;25.32
19102;BMP280;9683;49.028;12.064;2023-09-18T10:53:57;96663.63;;;25.41
19102;BMP280;9683;49.028;12.064;2023-09-18T10:56:24;96654.34;;;25.42
19102;BMP280;9683;49.028;12.064;2023-09-18T10:58:56;96655.97;;;25.55
19102;BMP280;9683;49.028;12.064;2023-09-18T11:01:24;96669.91;;;25.62
19102;BMP280;9683;49.028;12.064;2023-09-18T11:03:52;96663.88;;;25.69
19102;BMP280;9683;49.028;12.064;2023-09-18T11:06:20;96666.09;;;25.75
19102;BMP280;9683;49.028;12.064;2023-09-18T11:08:58;96673.91;;;25.77
19102;BMP280;9683;49.028;12.064;2023-09-18T11:11:26;96666.53;;;25.77
19102;BMP280;9683;49.028;12.064;2023-09-18T11:13:56;96677.69;;;25.84
19102;BMP280;9683;49.028;12.064;2023-09-18T11:16:35;96691.59;;;25.91
19102;BMP280;9683;49.028;12.064;2023-09-18T11:19:11;96685.94;;;25.96
19102;BMP280;9683;49.028;12.064;2023-09-18T11:21:40;96696.63;;;26.01
19102;BMP280;9683;49.028;12.064;2023-09-18T11:24:15;96691.06;;;26.10
19102;BMP280;9683;49.028;12.064;2023-09-18T11:26:43;96700.88;;;26.11
19102;BMP280;9683;49.028;12.064;2023-09-18T11:29:12;96703.06;;;26.18
19102;BMP280;9683;49.028;12.064;2023-09-18T11:31:44;96698.19;;;26.23
19102;BMP280;9683;49.028;12.064;2023-09-18T11:34:12;96703.31;;;26.25
19102;BMP280;9683;49.028;12.064;2023-09-18T11:36:40;96706.41;;;26.35
19102;BMP280;9683;49.028;12.064;2023-09-18T11:39:07;96707.31;;;26.39
19102;BMP280;9683;49.028;12.064;2023-09-18T11:41:35;96707.91;;;26.45
19102;BMP280;9683;49.028;12.064;2023-09-18T11:44:31;96698.13;;;26.44
19102;BMP280;9683;49.028;12.064;2023-09-18T11:46:58;96708.50;;;26.51
19102;BMP280;9683;49.028;12.064;2023-09-18T11:49:25;96713.28;;;26.54
19102;BMP280;9683;49.028;12.064;2023-09-18T11:51:58;96705.88;;;26.54
19102;BMP280;9683;49.028;12.064;2023-09-18T11:54:25;96711.13;;;26.59
19102;BMP280;9683;49.028;12.064;2023-09-18T11:56:51;96708.84;;;26.61
19102;BMP280;9683;49.028;12.064;2023-09-18T11:59:18;96697.22;;;26.64
19102;BMP280;9683;49.028;12.064;2023-09-18T12:01:52;96701.81;;;26.72
19102;BMP280;9683;49.028;12.064;2023-09-18T12:04:27;96704.53;;;26.72
19102;BMP280;9683;49.028;12.064;2023-09-18T12:06:55;96711.69;;;26.77
19102;BMP280;9683;49.028;12.064;2023-09-18T12:09:21;96711.94;;;26.72
19102;BMP280;9683;49.028;12.064;2023-09-18T12:11:50;96726.50;;;26.64
19102;BMP280;9683;49.028;12.064;2023-09-18T12:14:19;96717.16;;;26.65
19102;BMP280;9683;49.028;12.064;2023-09-18T12:16:46;96721.38;;;26.62
19102;BMP280;9683;49.028;12.064;2023-09-18T12:19:16;96724.09;;;26.62
19102;BMP280;9683;49.028;12.064;2023-09-18T12:21:45;96710.75;;;26.49
19102;BMP280;9683;49.028;12.064;2023-09-18T12:24:15;96722.81;;;26.48
19102;BMP280;9683;49.028;12.064;2023-09-18T12:26:47;96712.47;;;26.41
19102;BMP280;9683;49.028;12.064;2023-09-18T12:29:14;96713.34;;;26.33
19102;BMP280;9683;49.028;12.064;2023-09-18T12:31:40;96731.06;;;26.27
19102;BMP280;9683;49.028;12.064;2023-09-18T12:34:14;96726.63;;;26.22
19102;BMP280;9683;49.028;12.064;2023-09-18T12:36:41;96741.19;;;26.26
19102;BMP280;9683;49.028;12.064;2023-09-18T12:39:08;96746.88;;;26.21
19102;BMP280;9683;49.028;12.064;2023-09-18T12:41:37;96755.25;;;26.16
19102;BMP280;9683;49.028;12.064;2023-09-18T12:44:05;96739.41;;;26.10
19102;BMP280;9683;49.028;12.064;2023-09-18T12:46:32;96755.84;;;26.01
19102;BMP280;9683;49.028;12.064;2023-09-18T12:49:14;96779.91;;;25.87
19102;BMP280;9683;49.028;12.064;2023-09-18T12:51:41;96729.53;;;25.64
19102;BMP280;9683;49.028;12.064;2023-09-18T12:54:09;96774.03;;;25.76
19102;BMP280;9683;49.028;12.064;2023-09-18T12:56:43;96777.19;;;25.66
19102;BMP280;9683;49.028;12.064;2023-09-18T12:59:09;96763.41;;;25.63
19102;BMP280;9683;49.028;12.064;2023-09-18T13:01:38;96770.88;;;25.53
19102;BMP280;9683;49.028;12.064;2023-09-18T13:04:05;96757.38;;;25.48
19102;BMP280;9683;49.028;12.064;2023-09-18T13:06:31;96759.63;;;25.46
19102;BMP280;9683;49.028;12.064;2023-09-18T13:09:15;96764.63;;;25.44
19102;BMP280;9683;49.028;12.064;2023-09-18T13:11:56;96785.56;;;25.32
19102;BMP280;9683;49.028;12.064;2023-09-18T13:14:23;96784.50;;;25.24
19102;BMP280;9683;49.028;12.064;2023-09-18T13:16:50;96805.03;;;25.13
19102;BMP280;9683;49.028;12.064;2023-09-18T13:19:17;96802.72;;;25.03
19102;BMP280;9683;49.028;12.064;2023-09-18T13:21:47;96802.56;;;24.99
19102;BMP280;9683;49.028;12.064;2023-09-18T13:24:25;96819.56;;;24.88
19102;BMP280;9683;49.028;12.064;2023-09-18T13:26:52;96812.19;;;24.80
19102;BMP280;9683;49.028;12.064;2023-09-18T13:29:20;96847.31;;;24.73
19102;BMP280;9683;49.028;12.064;2023-09-18T13:31:47;96809.38;;;24.67
19102;BMP280;9683;49.028;12.064;2023-09-18T13:34:13;96836.28;;;24.60
19102;BMP280;9683;49.028;12.064;2023-09-18T13:36:43;96833.59;;;24.43
19102;BMP280;9683;49.028;12.064;2023-09-18T13:39:09;96835.34;;;24.13
19102;BMP280;9683;49.028;12.064;2023-09-18T13:41:36;96821.91;;;24.08
19102;BMP280;9683;49.028;12.064;2023-09-18T13:44:03;96835.53;;;24.17
19102;BMP280;9683;49.028;12.064;2023-09-18T13:46:31;96843.81;;;24.12
19102;BMP280;9683;49.028;12.064;2023-09-18T13:49:01;96856.66;;;24.11
19102;BMP280;9683;49.028;12.064;2023-09-18T13:51:29;96855.34;;;24.00
19102;BMP280;9683;49.028;12.064;2023-09-18T13:53:56;96848.78;;;23.84
19102;BMP280;9683;49.028;12.064;2023-09-18T13:56:22;96882.19;;;23.67
19102;BMP280;9683;49.028;12.064;2023-09-18T13:58:53;96853.72;;;23.56
19102;BMP280;9683;49.028;12.064;2023-09-18T14:01:21;96872.13;;;23.28
19102;BMP280;9683;49.028;12.064;2023-09-18T14:03:48;96870.13;;;23.12
19102;BMP280;9683;49.028;12.064;2023-09-18T14:06:16;96875.34;;;23.00
19102;BMP280;9683;49.028;12.064;2023-09-18T14:08:42;96863.16;;;22.89
19102;BMP280;9683;49.028;12.064;2023-09-18T14:11:09;96870.63;;;22.83
19102;BMP280;9683;49.028;12.064;2023-09-18T14:13:35;96872.31;;;22.70